createdAt,value
2022-08-22T00:00:30.038Z,70.05
2022-08-22T00:02:46.509Z,64.46
2022-08-22T00:03:12.111Z,72.01
2022-08-22T00:03:32.690Z,69.47
2022-08-22T00:06:34.692Z,69.15
2022-08-22T00:09:26.622Z,69.90
2022-08-22T00:12:18.371Z,69.58
2022-08-22T00:15:00.854Z,69.59
2022-08-22T00:17:40.377Z,69.73
2022-08-22T00:20:28.883Z,69.90
2022-08-22T00:23:02.403Z,71.09
2022-08-22T00:25:42.222Z,72.50
2022-08-22T00:28:21.869Z,72.49
2022-08-22T00:31:18.457Z,72.59
2022-08-22T00:34:10.168Z,72.72
2022-08-22T00:36:49.451Z,72.95
2022-08-22T00:39:31.761Z,73.03
2022-08-22T00:42:29.437Z,72.87
2022-08-22T00:44:58.169Z,73.61
2022-08-22T00:47:58.011Z,73.45
2022-08-22T00:50:46.095Z,74.93
2022-08-22T00:53:40.386Z,75.76
2022-08-22T00:56:25.866Z,76.55
2022-08-22T00:59:08.529Z,76.95
2022-08-22T01:01:40.390Z,77.06
2022-08-22T01:04:45.569Z,77.27
2022-08-22T01:07:21.942Z,77.51
2022-08-22T01:10:21.265Z,77.82
2022-08-22T01:13:10.611Z,78.14
2022-08-22T01:15:43.181Z,78.78
2022-08-22T01:18:25.722Z,78.99
2022-08-22T01:21:14.324Z,79.14
2022-08-22T01:24:13.785Z,78.42
2022-08-22T01:27:12.358Z,76.78
2022-08-22T01:30:05.975Z,77.57
2022-08-22T01:32:59.147Z,78.67
2022-08-22T01:35:38.914Z,79.01
2022-08-22T01:38:29.265Z,79.04
2022-08-22T01:41:22.939Z,79.16
2022-08-22T01:44:05.206Z,78.88
2022-08-22T01:46:53.587Z,78.83
2022-08-22T01:49:27.141Z,78.93
2022-08-22T01:52:15.680Z,79.09
2022-08-22T01:54:54.756Z,79.29
2022-08-22T01:57:26.958Z,78.81
2022-08-22T02:00:00.578Z,78.22
2022-08-22T02:02:55.209Z,78.43
2022-08-22T02:05:31.798Z,79.38
2022-08-22T02:08:09.597Z,79.50
2022-08-22T02:11:01.332Z,80.06
2022-08-22T02:13:37.461Z,80.20
2022-08-22T02:16:17.850Z,80.43
2022-08-22T02:18:57.647Z,80.59
2022-08-22T02:21:31.106Z,80.57
2022-08-22T02:24:06.657Z,80.91
2022-08-22T02:27:01.377Z,80.95
2022-08-22T02:29:53.150Z,80.95
2022-08-22T02:32:44.861Z,80.96
2022-08-22T02:35:21.144Z,81.47
2022-08-22T02:38:28.373Z,81.70
2022-08-22T02:41:17.648Z,81.91
2022-08-22T02:43:57.577Z,82.01
2022-08-22T02:46:34.155Z,82.29
2022-08-22T02:49:28.712Z,82.51
2022-08-22T02:52:24.220Z,82.39
2022-08-22T02:55:06.766Z,82.51
2022-08-22T02:57:47.583Z,82.62
2022-08-22T03:00:32.476Z,82.68
2022-08-22T03:03:22.576Z,82.46
2022-08-22T03:06:32.818Z,82.70
2022-08-22T03:09:21.329Z,82.36
2022-08-22T03:12:01.757Z,82.65
2022-08-22T03:14:35.651Z,82.61
2022-08-22T03:17:11.726Z,82.55
2022-08-22T03:19:51.033Z,82.40
2022-08-22T03:22:39.428Z,82.26
2022-08-22T03:25:21.476Z,81.77
2022-08-22T03:28:01.915Z,81.43
2022-08-22T03:30:38.886Z,80.54
2022-08-22T03:33:27.548Z,80.29
2022-08-22T03:36:19.478Z,79.84
2022-08-22T03:39:16.575Z,80.17
2022-08-22T03:42:04.545Z,80.17
2022-08-22T03:44:59.587Z,80.02
2022-08-22T03:47:35.932Z,80.12
2022-08-22T03:50:21.103Z,80.44
2022-08-22T03:53:18.701Z,80.41
2022-08-22T03:56:15.268Z,80.26
2022-08-22T03:58:44.154Z,80.50
2022-08-22T04:01:21.823Z,80.53
2022-08-22T04:04:13.375Z,80.70
2022-08-22T04:06:53.735Z,80.80
2022-08-22T04:09:37.013Z,80.63
2022-08-22T04:12:16.541Z,81.06
2022-08-22T04:15:01.349Z,81.27
2022-08-22T04:17:37.298Z,81.40
2022-08-22T04:20:34.700Z,81.32
2022-08-22T04:23:16.998Z,80.78
2022-08-22T04:26:12.078Z,81.27
2022-08-22T04:28:45.657Z,81.27
2022-08-22T04:31:25.308Z,81.28
2022-08-22T04:33:58.922Z,81.28
2022-08-22T04:36:32.486Z,80.98
2022-08-22T04:39:21.131Z,80.90
2022-08-22T04:42:31.835Z,80.58
2022-08-22T04:44:55.272Z,80.33
2022-08-22T04:47:46.005Z,79.76
2022-08-22T04:50:21.247Z,79.25
2022-08-22T04:53:06.564Z,78.39
2022-08-22T04:55:58.144Z,78.38
2022-08-22T04:58:43.691Z,77.93
2022-08-22T05:01:17.595Z,78.08
2022-08-22T05:04:00.028Z,78.16
2022-08-22T05:06:35.195Z,77.44
2022-08-22T05:09:11.775Z,77.48
2022-08-22T05:11:43.372Z,77.37
2022-08-22T05:14:28.526Z,76.62
2022-08-22T05:17:00.277Z,76.52
2022-08-22T05:19:37.282Z,76.75
2022-08-22T05:22:12.454Z,76.55
2022-08-22T05:24:46.341Z,73.50
2022-08-22T05:27:22.543Z,73.53
2022-08-22T05:29:58.439Z,73.83
2022-08-22T05:32:31.968Z,73.62
2022-08-22T05:35:05.046Z,74.17
2022-08-22T05:37:41.252Z,74.08
2022-08-22T05:40:17.560Z,73.59
2022-08-22T05:42:48.932Z,72.64
2022-08-22T05:45:20.196Z,72.65
2022-08-22T05:47:53.735Z,71.84
2022-08-22T05:50:39.265Z,70.75
2022-08-22T05:53:24.958Z,70.25
2022-08-22T05:56:07.148Z,69.59
2022-08-22T05:58:49.758Z,68.38
2022-08-22T06:01:38.405Z,66.66
2022-08-22T06:04:37.584Z,64.75
2022-08-22T06:07:16.999Z,62.21
2022-08-22T06:09:50.658Z,59.21
2022-08-22T06:12:43.053Z,56.23
2022-08-22T06:15:20.790Z,52.97
2022-08-22T06:18:00.060Z,50.25
2022-08-22T06:20:36.643Z,48.19
2022-08-22T06:23:09.053Z,50.53
2022-08-22T06:25:42.625Z,49.61
2022-08-22T06:28:16.145Z,52.00
2022-08-22T06:30:48.148Z,50.32
2022-08-22T06:33:21.984Z,55.05
2022-08-22T06:36:13.599Z,55.06
2022-08-22T06:39:10.176Z,58.52
2022-08-22T06:42:03.137Z,57.86
2022-08-22T06:44:39.682Z,56.89
2022-08-22T06:47:15.885Z,56.51
2022-08-22T06:49:47.074Z,57.09
2022-08-22T06:52:23.826Z,56.24
2022-08-22T06:55:00.416Z,56.14
2022-08-22T06:57:36.857Z,55.45
2022-08-22T07:00:10.613Z,55.76
2022-08-22T07:02:49.795Z,55.60
2022-08-22T07:05:26.223Z,55.28
2022-08-22T07:07:58.103Z,56.27
2022-08-22T07:10:28.769Z,57.16
2022-08-22T07:13:00.523Z,55.42
2022-08-22T07:15:37.087Z,55.19
2022-08-22T07:18:19.467Z,55.14
2022-08-22T07:20:55.195Z,55.45
2022-08-22T07:23:39.902Z,55.60
2022-08-22T07:26:35.569Z,54.14
2022-08-22T07:29:18.337Z,56.30
2022-08-22T07:32:00.865Z,55.33
2022-08-22T07:34:38.021Z,55.49
2022-08-22T07:37:17.671Z,53.86
2022-08-22T07:39:54.197Z,54.64
2022-08-22T07:42:30.375Z,53.14
2022-08-22T07:45:09.891Z,54.32
2022-08-22T07:47:52.651Z,53.36
2022-08-22T07:50:26.156Z,54.53
2022-08-22T07:52:59.620Z,53.94
2022-08-22T07:55:30.217Z,54.23
2022-08-22T07:58:03.986Z,55.69
2022-08-22T08:00:38.310Z,55.01
2022-08-22T08:03:11.068Z,55.89
2022-08-22T08:05:45.262Z,56.08
2022-08-22T08:08:36.760Z,55.86
2022-08-22T08:11:10.797Z,56.76
2022-08-22T08:13:44.962Z,56.34
2022-08-22T08:16:22.831Z,54.72
2022-08-22T08:18:56.925Z,54.16
2022-08-22T08:21:33.332Z,54.45
2022-08-22T08:24:05.989Z,52.91
2022-08-22T08:26:44.182Z,54.67
2022-08-22T08:29:18.829Z,55.08
2022-08-22T08:31:51.521Z,55.73
2022-08-22T08:34:25.203Z,55.46
2022-08-22T08:37:07.727Z,55.78
2022-08-22T08:39:48.495Z,55.32
2022-08-22T08:42:24.785Z,54.55
2022-08-22T08:45:07.549Z,54.04
2022-08-22T08:47:46.870Z,54.17
2022-08-22T08:50:21.522Z,53.91
2022-08-22T08:53:24.205Z,54.15
2022-08-22T08:56:22.382Z,53.47
2022-08-22T08:58:57.624Z,53.20
2022-08-22T09:01:46.340Z,53.32
2022-08-22T09:04:25.854Z,53.37
2022-08-22T09:07:08.548Z,53.10
2022-08-22T09:10:00.047Z,52.04
2022-08-22T09:13:11.720Z,50.18
2022-08-22T09:15:37.555Z,52.16
2022-08-22T09:18:22.440Z,50.89
2022-08-22T09:21:04.658Z,51.72
2022-08-22T09:24:07.555Z,51.84
2022-08-22T09:26:48.682Z,52.28
2022-08-22T09:29:54.974Z,52.97
2022-08-22T09:32:33.917Z,52.97
2022-08-22T09:35:23.173Z,53.89
2022-08-22T09:38:12.863Z,53.69
2022-08-22T09:41:03.426Z,53.44
2022-08-22T09:44:05.053Z,53.37
2022-08-22T09:47:07.560Z,53.12
2022-08-22T09:49:44.795Z,52.69
2022-08-22T09:52:40.741Z,51.30
2022-08-22T09:55:16.912Z,50.58
2022-08-22T09:57:53.927Z,51.22
2022-08-22T10:00:27.513Z,51.16
2022-08-22T10:03:32.319Z,51.45
2022-08-22T10:06:09.129Z,52.00
2022-08-22T10:09:00.581Z,51.25
2022-08-22T10:11:46.018Z,51.56
2022-08-22T10:14:23.160Z,51.24
2022-08-22T10:17:21.766Z,52.19
2022-08-22T10:19:57.107Z,51.66
2022-08-22T10:22:53.293Z,51.24
2022-08-22T10:25:31.376Z,51.38
2022-08-22T10:28:06.826Z,51.28
2022-08-22T10:30:50.939Z,51.48
2022-08-22T10:33:29.695Z,50.89
2022-08-22T10:36:11.981Z,49.97
2022-08-22T10:38:47.515Z,48.32
2022-08-22T10:41:30.533Z,47.87
2022-08-22T10:44:07.031Z,46.48
2022-08-22T10:46:58.198Z,45.35
2022-08-22T10:49:40.779Z,47.60
2022-08-22T10:52:15.685Z,49.73
2022-08-22T10:55:09.889Z,49.04
2022-08-22T10:57:57.635Z,49.19
2022-08-22T11:00:37.183Z,48.34
2022-08-22T11:03:27.715Z,47.03
2022-08-22T11:06:04.535Z,46.24
2022-08-22T11:08:40.908Z,48.05
2022-08-22T11:11:35.696Z,46.70
2022-08-22T11:14:17.480Z,45.66
2022-08-22T11:17:29.937Z,45.30
2022-08-22T11:20:20.443Z,47.24
2022-08-22T11:23:12.491Z,46.19
2022-08-22T11:25:52.375Z,44.81
2022-08-22T11:28:33.406Z,44.76
2022-08-22T11:31:20.060Z,44.95
2022-08-22T11:34:00.991Z,47.50
2022-08-22T11:36:38.796Z,46.77
2022-08-22T11:39:18.384Z,47.54
2022-08-22T11:42:21.860Z,48.40
2022-08-22T11:45:02.368Z,47.78
2022-08-22T11:47:37.708Z,49.44
2022-08-22T11:50:22.939Z,48.80
2022-08-22T11:53:16.078Z,47.50
2022-08-22T11:56:19.856Z,46.76
2022-08-22T11:59:05.951Z,47.45
2022-08-22T12:01:40.664Z,46.79
2022-08-22T12:04:14.157Z,46.69
2022-08-22T12:06:49.821Z,46.41
2022-08-22T12:09:23.608Z,47.80
2022-08-22T12:12:21.613Z,47.47
2022-08-22T12:15:25.796Z,46.64
2022-08-22T12:18:23.748Z,47.73
2022-08-22T12:21:33.882Z,48.49
2022-08-22T12:24:21.096Z,46.73
2022-08-22T12:27:07.758Z,46.01
2022-08-22T12:29:53.695Z,48.89
2022-08-22T12:32:45.771Z,48.67
2022-08-22T12:35:31.295Z,47.07
2022-08-22T12:38:28.013Z,46.36
2022-08-22T12:41:13.331Z,46.95
2022-08-22T12:43:51.557Z,46.54
2022-08-22T12:46:37.841Z,47.61
2022-08-22T12:49:13.077Z,48.39
2022-08-22T12:51:46.847Z,47.48
2022-08-22T12:54:43.054Z,46.52
2022-08-22T12:57:24.243Z,46.73
2022-08-22T12:59:58.164Z,47.15
2022-08-22T13:02:31.927Z,44.63
2022-08-22T13:05:05.458Z,45.11
2022-08-22T13:07:38.914Z,45.49
2022-08-22T13:10:38.124Z,45.48
2022-08-22T13:13:12.759Z,46.51
2022-08-22T13:15:53.506Z,46.49
2022-08-22T13:18:31.132Z,46.45
2022-08-22T13:21:03.080Z,46.05
2022-08-22T13:23:41.920Z,44.70
2022-08-22T13:26:33.081Z,45.11
2022-08-22T13:29:24.019Z,45.99
2022-08-22T13:31:39.678Z,46.24
2022-08-22T13:34:13.121Z,46.64
2022-08-22T13:36:51.819Z,47.95
2022-08-22T13:39:22.001Z,46.91
2022-08-22T13:41:55.488Z,47.11
2022-08-22T13:44:44.112Z,47.49
2022-08-22T13:47:20.903Z,47.08
2022-08-22T13:49:56.070Z,48.44
2022-08-22T13:52:37.926Z,48.98
2022-08-22T13:55:29.926Z,47.63
2022-08-22T13:58:25.102Z,48.07
2022-08-22T14:01:16.249Z,48.39
2022-08-22T14:04:04.958Z,47.56
2022-08-22T14:06:53.576Z,47.82
2022-08-22T14:09:41.740Z,47.50
2022-08-22T14:12:18.380Z,48.34
2022-08-22T14:14:52.411Z,49.38
2022-08-22T14:17:25.990Z,49.27
2022-08-22T14:20:06.935Z,49.19
2022-08-22T14:22:41.700Z,49.12
2022-08-22T14:25:21.532Z,49.57
2022-08-22T14:27:59.625Z,49.92
2022-08-22T14:30:34.777Z,50.26
2022-08-22T14:33:08.393Z,49.72
2022-08-22T14:35:42.045Z,49.47
2022-08-22T14:38:21.626Z,50.09
2022-08-22T14:40:57.167Z,50.59
2022-08-22T14:43:35.095Z,50.40
2022-08-22T14:46:13.078Z,50.16
2022-08-22T14:48:46.838Z,49.29
2022-08-22T14:51:21.363Z,48.63
2022-08-22T14:53:52.622Z,49.80
2022-08-22T14:56:27.831Z,50.73
2022-08-22T14:59:04.177Z,50.25
2022-08-22T15:01:37.850Z,50.14
2022-08-22T15:04:18.896Z,50.36
2022-08-22T15:06:55.357Z,49.68
2022-08-22T15:09:43.513Z,49.61
2022-08-22T15:12:32.289Z,49.17
2022-08-22T15:15:05.847Z,51.17
2022-08-22T15:17:44.461Z,51.92
2022-08-22T15:20:27.613Z,52.74
2022-08-22T15:23:00.656Z,52.57
2022-08-22T15:25:41.131Z,51.74
2022-08-22T15:28:20.338Z,50.70
2022-08-22T15:30:54.188Z,50.40
2022-08-22T15:33:35.113Z,49.68
2022-08-22T15:36:16.380Z,50.74
2022-08-22T15:38:49.672Z,50.68
2022-08-22T15:41:36.212Z,51.42
2022-08-22T15:44:32.463Z,51.78
2022-08-22T15:47:31.494Z,50.99
2022-08-22T15:50:07.907Z,50.12
2022-08-22T15:53:04.905Z,50.69
2022-08-22T15:55:31.790Z,50.73
2022-08-22T15:58:14.077Z,50.56
2022-08-22T16:00:48.188Z,50.33
2022-08-22T16:03:28.006Z,50.40
2022-08-22T16:06:08.010Z,50.66
2022-08-22T16:08:47.770Z,50.63
2022-08-22T16:11:38.749Z,51.06
2022-08-22T16:14:36.822Z,51.62
2022-08-22T16:17:10.409Z,52.38
2022-08-22T16:19:40.876Z,51.86
2022-08-22T16:22:13.097Z,52.15
2022-08-22T16:25:02.976Z,52.30
2022-08-22T16:27:34.582Z,51.91
2022-08-22T16:30:11.320Z,52.59
2022-08-22T16:32:46.740Z,52.68
2022-08-22T16:35:37.072Z,53.26
2022-08-22T16:38:09.054Z,53.55
2022-08-22T16:40:42.701Z,53.51
2022-08-22T16:43:16.176Z,53.70
2022-08-22T16:45:48.595Z,53.56
2022-08-22T16:48:33.455Z,53.95
2022-08-22T16:51:07.042Z,53.71
2022-08-22T16:53:45.800Z,53.45
2022-08-22T16:56:29.605Z,53.03
2022-08-22T16:59:22.030Z,52.69
2022-08-22T17:02:04.736Z,53.27
2022-08-22T17:05:10.531Z,54.06
2022-08-22T17:08:02.032Z,54.42
2022-08-22T17:10:44.571Z,54.60
2022-08-22T17:13:46.804Z,54.63
2022-08-22T17:16:47.262Z,54.17
2022-08-22T17:19:42.551Z,54.53
2022-08-22T17:22:44.662Z,54.38
2022-08-22T17:25:21.311Z,54.59
2022-08-22T17:28:04.562Z,54.70
2022-08-22T17:30:50.067Z,54.89
2022-08-22T17:33:37.307Z,54.75
2022-08-22T17:36:27.148Z,54.87
2022-08-22T17:39:04.724Z,54.77
2022-08-22T17:41:47.261Z,54.92
2022-08-22T17:44:24.444Z,55.23
2022-08-22T17:47:09.824Z,55.46
2022-08-22T17:49:46.102Z,55.85
2022-08-22T17:52:28.490Z,56.32
2022-08-22T17:55:07.899Z,57.74
2022-08-22T17:57:42.870Z,57.75
2022-08-22T18:00:30.573Z,58.54
2022-08-22T18:03:24.601Z,58.65
2022-08-22T18:06:07.237Z,59.14
2022-08-22T18:11:28.367Z,59.58
2022-08-22T18:14:26.385Z,59.73
2022-08-22T18:16:59.363Z,60.12
2022-08-22T18:19:46.695Z,60.20
2022-08-22T18:22:24.390Z,59.84
2022-08-22T18:25:09.497Z,60.12
2022-08-22T18:27:48.566Z,60.29
2022-08-22T18:30:22.584Z,60.78
2022-08-22T18:33:11.213Z,60.91
2022-08-22T18:35:54.486Z,60.86
2022-08-22T18:38:36.833Z,60.50
2022-08-22T18:41:23.366Z,60.96
2022-08-22T18:43:56.362Z,61.16
2022-08-22T18:46:35.738Z,61.40
2022-08-22T18:49:16.113Z,61.86
2022-08-22T18:52:17.403Z,62.16
2022-08-22T18:55:06.093Z,62.56
2022-08-22T18:58:03.682Z,62.94
2022-08-22T19:01:00.045Z,63.23
2022-08-22T19:04:10.046Z,63.76
2022-08-22T19:07:09.960Z,64.22
2022-08-22T19:10:10.170Z,65.12
2022-08-22T19:13:03.045Z,65.38
2022-08-22T19:15:48.553Z,65.81
2022-08-22T19:18:44.595Z,65.84
2022-08-22T19:21:48.630Z,65.54
2022-08-22T19:24:27.899Z,65.59
2022-08-22T19:27:21.286Z,65.64
2022-08-22T19:29:55.276Z,65.76
2022-08-22T19:32:48.071Z,64.95
2022-08-22T19:35:28.528Z,64.73
2022-08-22T19:38:01.758Z,64.51
2022-08-22T19:40:50.542Z,64.55
2022-08-22T19:43:36.774Z,64.49
2022-08-22T19:46:10.959Z,63.77
2022-08-22T19:48:51.960Z,63.97
2022-08-22T19:51:28.374Z,63.76
2022-08-22T19:54:21.741Z,63.85
2022-08-22T19:57:07.147Z,63.10
2022-08-22T20:00:00.458Z,63.47
2022-08-22T20:02:58.126Z,61.95
2022-08-22T20:05:35.026Z,60.55
2022-08-22T20:08:31.136Z,59.74
2022-08-22T20:11:16.632Z,60.10
2022-08-22T20:13:47.362Z,60.65
2022-08-22T20:16:23.105Z,60.39
2022-08-22T20:19:09.607Z,60.89
2022-08-22T20:22:03.490Z,61.09
2022-08-22T20:25:01.676Z,61.28
2022-08-22T20:27:38.481Z,62.00
2022-08-22T20:30:12.049Z,62.40
2022-08-22T20:32:45.661Z,62.90
2022-08-22T20:35:22.031Z,63.08
2022-08-22T20:38:07.210Z,63.35
2022-08-22T20:40:56.228Z,64.01
2022-08-22T20:43:30.646Z,64.32
2022-08-22T20:46:21.971Z,64.65
2022-08-22T20:48:57.165Z,65.35
2022-08-22T20:51:31.628Z,65.53
2022-08-22T20:54:10.234Z,65.72
2022-08-22T20:56:48.737Z,66.04
2022-08-22T20:59:40.083Z,66.35
2022-08-22T21:02:16.348Z,67.01
2022-08-22T21:04:53.117Z,67.56
2022-08-22T21:07:29.366Z,67.97
2022-08-22T21:10:25.531Z,68.03
2022-08-22T21:13:15.723Z,68.60
2022-08-22T21:15:52.128Z,68.92
2022-08-22T21:18:34.488Z,69.34
2022-08-22T21:21:20.070Z,69.68
2022-08-22T21:23:59.918Z,70.22
2022-08-22T21:26:30.225Z,71.37
2022-08-22T21:29:15.531Z,71.42
2022-08-22T21:31:49.341Z,71.52
2022-08-22T21:34:25.725Z,71.97
2022-08-22T21:36:59.461Z,71.92
2022-08-22T21:39:32.990Z,72.04
2022-08-22T21:42:06.554Z,72.73
2022-08-22T21:44:39.957Z,72.38
2022-08-22T21:47:31.727Z,73.41
2022-08-22T21:50:08.194Z,73.40
2022-08-22T21:52:41.667Z,73.56
2022-08-22T21:55:24.224Z,73.63
2022-08-22T21:58:35.735Z,74.04
2022-08-22T22:00:58.564Z,74.09
2022-08-22T22:03:31.856Z,74.11
2022-08-22T22:06:05.334Z,74.60
2022-08-22T22:08:35.785Z,74.50
2022-08-22T22:11:09.515Z,74.42
2022-08-22T22:13:40.179Z,74.50
2022-08-22T22:16:13.439Z,74.67
2022-08-22T22:18:44.009Z,74.91
2022-08-22T22:21:14.513Z,74.97
2022-08-22T22:23:45.050Z,74.95
2022-08-22T22:26:18.446Z,74.81
2022-08-22T22:28:50.322Z,74.46
2022-08-22T22:31:20.948Z,74.63
2022-08-22T22:33:51.515Z,74.26
2022-08-22T22:36:25.031Z,74.05
2022-08-22T22:38:59.191Z,74.20
2022-08-22T22:41:30.934Z,74.08
2022-08-22T22:44:02.175Z,73.82
2022-08-22T22:46:32.730Z,73.81
2022-08-22T22:49:09.215Z,73.57
2022-08-22T22:51:41.482Z,73.42
2022-08-22T22:54:12.311Z,73.07
2022-08-22T22:56:48.039Z,72.94
2022-08-22T22:59:16.698Z,73.14
2022-08-22T23:02:12.123Z,73.49
2022-08-22T23:04:45.221Z,73.30
2022-08-22T23:07:18.411Z,73.09
2022-08-22T23:09:48.829Z,73.20
2022-08-22T23:12:23.482Z,73.60
2022-08-22T23:14:54.336Z,75.16
2022-08-22T23:17:24.943Z,75.64
2022-08-22T23:19:56.981Z,75.82
2022-08-22T23:22:27.697Z,75.40
2022-08-22T23:24:58.151Z,76.19
2022-08-22T23:27:28.700Z,75.81
2022-08-22T23:30:02.176Z,75.22
2022-08-22T23:32:33.931Z,75.09
2022-08-22T23:35:11.259Z,75.63
2022-08-22T23:37:38.687Z,75.88
2022-08-22T23:40:10.762Z,75.30
2022-08-22T23:42:43.052Z,76.32
2022-08-22T23:45:13.846Z,76.25
2022-08-22T23:47:46.002Z,75.99
2022-08-22T23:50:16.694Z,76.73
2022-08-22T23:52:48.730Z,76.64
2022-08-22T23:55:19.468Z,75.93
2022-08-22T23:57:51.206Z,76.39
